Time;durP1;ratioP1;P1;durP2;ratioP2;P2;SDS_P1;SDS_P2;PMS_P1;PMS_P2;Temp;Humidity;BMP_temperature;BMP_pressure;BME280_temperature;BME280_humidity;BME280_pressure;Samples;Min_cycle;Max_cycle;Signal;HPM_P1;HPM_P2
2023/07/13 00:00:41;;;;;;;0.00;0.00;;;;;;;17.81;100.00;101290.91;4996843;28;20062;-45
2023/07/13 00:03:06;;;;;;;0.00;0.00;;;;;;;17.76;100.00;101284.19;4993474;28;20049;-46
2023/07/13 00:05:32;;;;;;;0.00;0.00;;;;;;;17.81;100.00;101285.47;4995950;28;20027;-44
2023/07/13 00:07:57;;;;;;;0.00;0.00;;;;;;;17.80;100.00;101289.22;4995787;28;20023;-46
2023/07/13 00:10:23;;;;;;;0.00;0.00;;;;;;;17.77;100.00;101290.47;4996047;28;20019;-45
2023/07/13 00:12:49;;;;;;;0.00;0.00;;;;;;;17.74;100.00;101296.34;4995539;28;20026;-46
2023/07/13 00:15:22;;;;;;;0.00;0.00;;;;;;;17.78;100.00;101294.88;4996346;28;20018;-46
2023/07/13 00:17:49;;;;;;;0.00;0.00;;;;;;;17.78;100.00;101303.88;4996170;28;20129;-44
2023/07/13 00:20:14;;;;;;;0.00;0.00;;;;;;;17.81;100.00;101296.38;4996262;28;20034;-45
2023/07/13 00:22:40;;;;;;;0.00;0.00;;;;;;;17.75;100.00;101304.31;4995806;28;20034;-44
2023/07/13 00:25:05;;;;;;;0.00;0.00;;;;;;;17.72;100.00;101299.31;4995863;28;20022;-45
2023/07/13 00:27:31;;;;;;;0.00;0.00;;;;;;;17.68;100.00;101298.06;4995784;28;20445;-45
2023/07/13 00:29:57;;;;;;;0.00;0.00;;;;;;;17.72;100.00;101299.31;4995866;28;20170;-44
2023/07/13 00:32:25;;;;;;;0.00;0.00;;;;;;;17.79;100.00;101299.28;4994825;28;20066;-45
2023/07/13 00:34:51;;;;;;;0.00;0.00;;;;;;;17.77;100.00;101298.63;4989955;28;20037;-48
2023/07/13 00:37:16;;;;;;;0.00;0.00;;;;;;;17.75;100.00;101298.88;4993506;28;20034;-45
2023/07/13 00:39:41;;;;;;;0.00;0.00;;;;;;;17.76;100.00;101303.25;4995447;28;20457;-44
2023/07/13 00:42:07;;;;;;;0.00;0.00;;;;;;;17.69;100.00;101288.00;4994728;28;20045;-44
2023/07/13 00:44:33;;;;;;;0.00;0.00;;;;;;;17.70;100.00;101290.53;4994395;28;20030;-46
2023/07/13 00:46:58;;;;;;;0.00;0.00;;;;;;;17.66;100.00;101283.84;4993992;28;20045;-46
2023/07/13 00:49:26;;;;;;;0.00;0.00;;;;;;;17.59;100.00;101277.63;4994030;28;20329;-45
2023/07/13 00:52:02;;;;;;;0.00;0.00;;;;;;;17.51;100.00;101277.88;4992613;28;20057;-44
2023/07/13 00:54:32;;;;;;;0.00;0.00;;;;;;;17.45;100.00;101284.16;4991633;28;20421;-44
2023/07/13 00:56:59;;;;;;;0.00;0.00;;;;;;;17.39;100.00;101285.88;4988670;28;20474;-44
2023/07/13 00:59:25;;;;;;;0.00;0.00;;;;;;;17.41;100.00;101291.09;4973675;28;20027;-43
2023/07/13 01:01:51;;;;;;;0.00;0.00;;;;;;;17.38;100.00;101292.38;4985682;28;20109;-45
2023/07/13 01:04:17;;;;;;;0.00;0.00;;;;;;;17.32;100.00;101298.66;4992792;28;20486;-43
2023/07/13 01:06:43;;;;;;;0.00;0.00;;;;;;;17.32;100.00;101288.63;4993023;28;20102;-44
2023/07/13 01:09:10;;;;;;;0.00;0.00;;;;;;;17.29;100.00;101285.47;4992758;28;20027;-44
2023/07/13 01:11:36;;;;;;;0.00;0.00;;;;;;;17.23;100.00;101289.91;4991224;28;20041;-44
2023/07/13 01:14:02;;;;;;;0.00;0.00;;;;;;;17.17;100.00;101284.47;4992559;28;20031;-47
2023/07/13 01:16:30;;;;;;;0.00;0.00;;;;;;;17.11;100.00;101283.44;4992967;28;20500;-47
2023/07/13 01:19:00;;;;;;;0.00;0.00;;;;;;;17.10;100.00;101287.22;4992980;28;20528;-44
2023/07/13 01:21:27;;;;;;;0.00;0.00;;;;;;;17.07;100.00;101290.38;4993624;28;20150;-43
2023/07/13 01:23:52;;;;;;;0.00;0.00;;;;;;;17.09;100.00;101293.75;4992593;28;20467;-43
2023/07/13 01:26:18;;;;;;;0.00;0.00;;;;;;;17.03;100.00;101297.28;4993677;28;20034;-44
2023/07/13 01:28:44;;;;;;;0.00;0.00;;;;;;;17.03;100.00;101300.84;4994597;28;20049;-45
2023/07/13 01:31:10;;;;;;;0.00;0.00;;;;;;;17.00;100.00;101311.31;4993122;28;20425;-45
2023/07/13 01:33:39;;;;;;;0.00;0.00;;;;;;;16.93;100.00;101305.06;4993909;28;20029;-45
2023/07/13 01:36:05;;;;;;;0.00;0.00;;;;;;;16.91;100.00;101308.00;4993668;28;20022;-44
2023/07/13 01:38:31;;;;;;;0.00;0.00;;;;;;;16.92;100.00;101308.81;4994519;28;20112;-45
2023/07/13 01:40:56;;;;;;;0.00;0.00;;;;;;;16.93;100.00;101310.50;5013361;28;20426;-45
2023/07/13 01:43:22;;;;;;;0.00;0.00;;;;;;;16.84;100.00;101308.00;5010572;28;20089;-44
2023/07/13 01:45:47;;;;;;;0.00;0.00;;;;;;;16.81;100.00;101305.72;4992547;28;20482;-45
2023/07/13 01:48:13;;;;;;;0.00;0.00;;;;;;;16.79;100.00;101310.50;4992508;28;20467;-45
2023/07/13 01:50:38;;;;;;;0.00;0.00;;;;;;;16.78;100.00;101310.75;4992118;28;20057;-45
2023/07/13 01:53:04;;;;;;;0.00;0.00;;;;;;;16.76;100.00;101321.78;4992627;28;20066;-45
2023/07/13 01:55:30;;;;;;;0.00;0.00;;;;;;;16.76;100.00;101308.19;4992107;28;20065;-45
2023/07/13 01:57:56;;;;;;;0.00;0.00;;;;;;;16.77;100.00;101314.47;4992937;28;20026;-46
2023/07/13 02:00:21;;;;;;;0.00;0.00;;;;;;;16.76;100.00;101316.34;4994321;28;20439;-43
2023/07/13 02:02:47;;;;;;;0.00;0.00;;;;;;;16.77;100.00;101319.91;4993536;28;20121;-44
2023/07/13 02:05:12;;;;;;;0.00;0.00;;;;;;;16.76;100.00;101324.50;4993412;28;20045;-44
2023/07/13 02:07:38;;;;;;;0.00;0.00;;;;;;;16.73;100.00;101319.50;4994098;28;20034;-43
2023/07/13 02:10:05;;;;;;;0.00;0.00;;;;;;;16.70;100.00;101327.25;4994670;28;20110;-45
2023/07/13 02:12:30;;;;;;;0.00;0.00;;;;;;;16.71;100.00;101326.19;4994769;28;20026;-44
2023/07/13 02:14:56;;;;;;;0.00;0.00;;;;;;;16.70;100.00;101333.50;4992838;28;20629;-43
2023/07/13 02:17:21;;;;;;;0.00;0.00;;;;;;;16.69;100.00;101331.81;4993220;28;20050;-43
2023/07/13 02:19:47;;;;;;;0.00;0.00;;;;;;;16.71;100.00;101328.91;4993528;28;20035;-45
2023/07/13 02:22:12;;;;;;;0.00;0.00;;;;;;;16.74;100.00;101334.75;4993048;28;20038;-46
2023/07/13 02:24:38;;;;;;;0.00;0.00;;;;;;;16.73;100.00;101330.38;4992858;28;20031;-43
2023/07/13 02:27:04;;;;;;;0.00;0.00;;;;;;;16.74;100.00;101328.47;4992894;28;20035;-43
2023/07/13 02:29:29;;;;;;;0.00;0.00;;;;;;;16.74;100.00;101328.47;4992767;28;20041;-43
2023/07/13 02:31:55;;;;;;;0.00;0.00;;;;;;;16.75;100.00;101336.44;4991967;28;20031;-44
2023/07/13 02:34:20;;;;;;;0.00;0.00;;;;;;;16.75;100.00;101335.59;4991800;28;20049;-45
2023/07/13 02:36:46;;;;;;;0.00;0.00;;;;;;;16.78;100.00;101338.75;4992113;28;20022;-44
2023/07/13 02:39:12;;;;;;;0.00;0.00;;;;;;;16.77;100.00;101336.22;4995473;28;20089;-45
2023/07/13 02:41:38;;;;;;;0.00;0.00;;;;;;;16.79;100.00;101337.69;4995563;28;20050;-45
2023/07/13 02:44:03;;;;;;;0.00;0.00;;;;;;;16.79;100.00;101340.41;4995542;28;20113;-46
2023/07/13 02:46:33;;;;;;;0.00;0.00;;;;;;;16.80;100.00;101342.09;4995296;28;20085;-43
2023/07/13 02:48:59;;;;;;;0.00;0.00;;;;;;;16.77;100.00;101350.69;4995569;28;20038;-44
2023/07/13 02:51:25;;;;;;;0.00;0.00;;;;;;;16.77;100.00;101349.78;4994917;28;20054;-49
2023/07/13 02:53:50;;;;;;;0.00;0.00;;;;;;;16.74;100.00;101348.34;4995672;28;20018;-44
2023/07/13 02:56:16;;;;;;;0.00;0.00;;;;;;;16.77;100.00;101356.13;4995471;28;20393;-44
2023/07/13 02:58:41;;;;;;;0.00;0.00;;;;;;;16.79;100.00;101350.47;4995483;28;20026;-45
2023/07/13 03:01:10;;;;;;;0.00;0.00;;;;;;;16.79;100.00;101354.00;4994083;28;20042;-45
2023/07/13 03:03:36;;;;;;;0.00;0.00;;;;;;;16.77;100.00;101358.84;4994563;28;20034;-46
2023/07/13 03:06:05;;;;;;;0.00;0.00;;;;;;;16.82;100.00;101360.91;4994106;28;20115;-47
2023/07/13 03:08:30;;;;;;;0.00;0.00;;;;;;;16.81;100.00;101368.22;4994654;28;20038;-45
2023/07/13 03:11:04;;;;;;;0.00;0.00;;;;;;;16.79;100.00;101372.22;4994931;28;20119;-47
2023/07/13 03:13:30;;;;;;;0.00;0.00;;;;;;;16.77;100.00;101377.88;4995228;28;20102;-45
2023/07/13 03:15:56;;;;;;;0.00;0.00;;;;;;;16.76;100.00;101373.44;4995008;28;20026;-46
2023/07/13 03:18:21;;;;;;;0.00;0.00;;;;;;;16.76;100.00;101378.03;4995327;28;20026;-45
2023/07/13 03:20:50;;;;;;;0.00;0.00;;;;;;;16.76;100.00;101378.88;4996045;28;20041;-45
2023/07/13 03:23:16;;;;;;;0.00;0.00;;;;;;;16.77;100.00;101367.00;4996417;28;20445;-43
2023/07/13 03:25:41;;;;;;;0.00;0.00;;;;;;;16.78;100.00;101374.09;4996435;28;20034;-43
2023/07/13 03:28:07;;;;;;;0.00;0.00;;;;;;;16.83;100.00;101379.75;4978581;28;20035;-42
2023/07/13 03:30:32;;;;;;;0.00;0.00;;;;;;;16.84;100.00;101377.84;4976415;28;20118;-44
2023/07/13 03:32:58;;;;;;;0.00;0.00;;;;;;;16.85;100.00;101374.94;4990779;28;20035;-45
2023/07/13 03:35:23;;;;;;;0.00;0.00;;;;;;;16.85;100.00;101374.94;4977141;28;20023;-43
2023/07/13 03:37:48;;;;;;;0.00;0.00;;;;;;;16.85;100.00;101372.22;4994701;28;20404;-44
2023/07/13 03:40:14;;;;;;;0.00;0.00;;;;;;;16.87;100.00;101372.81;4994743;28;20449;-44
2023/07/13 03:42:39;;;;;;;0.00;0.00;;;;;;;16.89;100.00;101378.88;4994503;28;20038;-45
2023/07/13 03:45:05;;;;;;;0.00;0.00;;;;;;;16.92;100.00;101382.25;4994869;28;20085;-45
2023/07/13 03:47:31;;;;;;;0.00;0.00;;;;;;;16.89;100.00;101381.59;4994159;28;20514;-47
2023/07/13 03:49:56;;;;;;;0.00;0.00;;;;;;;16.89;100.00;101380.78;4994849;28;20114;-43
2023/07/13 03:52:22;;;;;;;0.00;0.00;;;;;;;16.88;100.00;101390.81;4994175;28;20425;-45
2023/07/13 03:54:47;;;;;;;0.00;0.00;;;;;;;16.91;100.00;101383.28;4994454;28;20125;-44
2023/07/13 03:57:13;;;;;;;0.00;0.00;;;;;;;16.88;100.00;101385.38;4994222;28;20050;-45
2023/07/13 03:59:38;;;;;;;0.00;0.00;;;;;;;16.92;100.00;101379.53;4994251;28;20050;-49
2023/07/13 04:02:04;;;;;;;0.00;0.00;;;;;;;16.95;100.00;101387.25;4994188;28;20109;-46
2023/07/13 04:04:30;;;;;;;0.00;0.00;;;;;;;16.94;100.00;101393.75;4994018;28;20026;-45
2023/07/13 04:06:58;;;;;;;0.00;0.00;;;;;;;16.97;100.00;101398.75;4993737;28;20039;-45
2023/07/13 04:09:24;;;;;;;0.00;0.00;;;;;;;17.00;100.00;101387.44;4991527;28;20061;-43
2023/07/13 04:11:49;;;;;;;0.00;0.00;;;;;;;17.02;100.00;101385.38;4993949;28;20457;-44
2023/07/13 04:14:15;;;;;;;0.00;0.00;;;;;;;17.08;100.00;101385.34;4991855;28;20034;-46
2023/07/13 04:16:40;;;;;;;0.00;0.00;;;;;;;17.15;100.00;101388.06;4993606;28;20045;-47
2023/07/13 04:19:06;;;;;;;0.00;0.00;;;;;;;17.18;100.00;101379.47;4993912;28;20034;-45
2023/07/13 04:21:31;;;;;;;0.00;0.00;;;;;;;17.19;100.00;101383.84;4993877;28;20037;-45
2023/07/13 04:23:57;;;;;;;0.00;0.00;;;;;;;17.25;100.00;101380.31;4993914;28;20038;-45
2023/07/13 04:26:23;;;;;;;0.00;0.00;;;;;;;17.31;100.00;101384.88;4976705;28;20031;-45
2023/07/13 04:28:49;;;;;;;0.00;0.00;;;;;;;17.33;100.00;101385.50;4974344;28;20034;-46
2023/07/13 04:31:15;;;;;;;0.00;0.00;;;;;;;17.37;100.00;101393.25;4974169;28;20023;-46
2023/07/13 04:33:40;;;;;;;0.00;0.00;;;;;;;17.36;100.00;101381.53;4978072;28;20195;-46
2023/07/13 04:36:07;;;;;;;0.00;0.00;;;;;;;17.38;100.00;101394.91;4994093;28;20037;-46
2023/07/13 04:38:32;;;;;;;0.00;0.00;;;;;;;17.40;100.00;101393.63;4993354;28;20046;-46
2023/07/13 04:41:04;;;;;;;0.00;0.00;;;;;;;17.50;100.00;101393.19;4993348;28;20060;-45
2023/07/13 04:43:30;;;;;;;0.00;0.00;;;;;;;17.47;100.00;101388.19;4993870;28;20097;-47
2023/07/13 04:45:56;;;;;;;0.00;0.00;;;;;;;17.52;100.00;101391.09;4993336;28;20140;-44
2023/07/13 04:48:22;;;;;;;0.00;0.00;;;;;;;17.55;100.00;101387.94;4996337;28;20192;-48
2023/07/13 04:50:54;;;;;;;0.00;0.00;;;;;;;17.57;100.00;101383.13;4996832;28;20412;-46
2023/07/13 04:53:20;;;;;;;0.00;0.00;;;;;;;17.63;100.00;101392.31;4993389;28;20034;-48
2023/07/13 04:55:46;;;;;;;0.00;0.00;;;;;;;17.69;100.00;101397.75;4993392;28;20033;-47
2023/07/13 04:58:12;;;;;;;0.00;0.00;;;;;;;17.77;100.00;101389.34;4993082;28;20026;-46
2023/07/13 05:00:39;;;;;;;0.00;0.00;;;;;;;17.78;100.00;101391.00;4986950;28;20110;-46
2023/07/13 05:03:04;;;;;;;0.00;0.00;;;;;;;17.82;100.00;101401.47;5006831;28;20040;-44
2023/07/13 05:05:30;;;;;;;0.00;0.00;;;;;;;17.93;100.00;101396.22;5012736;28;20453;-46
2023/07/13 05:07:55;;;;;;;0.00;0.00;;;;;;;17.94;100.00;101399.75;5006062;28;20034;-45
2023/07/13 05:10:21;;;;;;;0.00;0.00;;;;;;;18.00;100.00;101404.31;4992914;28;20063;-45
2023/07/13 05:12:47;;;;;;;0.00;0.00;;;;;;;18.06;100.00;101406.19;4982055;28;20385;-45
2023/07/13 05:15:12;;;;;;;0.00;0.00;;;;;;;18.04;100.00;101408.31;4989911;28;20022;-48
2023/07/13 05:17:41;;;;;;;0.00;0.00;;;;;;;17.99;100.00;101408.94;4984293;28;20033;-48
2023/07/13 05:20:08;;;;;;;0.00;0.00;;;;;;;18.04;100.00;101408.31;4974560;28;20113;-46
2023/07/13 05:22:34;;;;;;;0.00;0.00;;;;;;;17.95;100.00;101407.69;4975207;28;20026;-44
2023/07/13 05:25:01;;;;;;;0.00;0.00;;;;;;;18.01;100.00;101413.31;4992734;28;20042;-46
2023/07/13 05:27:26;;;;;;;0.00;0.00;;;;;;;18.06;100.00;101403.47;4993035;28;20073;-44
2023/07/13 05:29:52;;;;;;;0.00;0.00;;;;;;;18.10;100.00;101409.31;4992828;28;20022;-44
2023/07/13 05:32:18;;;;;;;0.00;0.00;;;;;;;18.12;100.00;101413.50;4992589;28;20460;-45
2023/07/13 05:34:44;;;;;;;0.00;0.00;;;;;;;18.15;100.00;101417.66;4992785;28;20031;-45
2023/07/13 05:37:09;;;;;;;0.00;0.00;;;;;;;18.27;100.00;101415.06;4992799;28;20369;-45
2023/07/13 05:39:35;;;;;;;0.00;0.00;;;;;;;18.43;100.00;101414.53;4990859;28;20096;-46
2023/07/13 05:42:00;;;;;;;0.00;0.00;;;;;;;18.64;100.00;101411.47;4980366;28;20030;-46
2023/07/13 05:44:25;;;;;;;0.00;0.00;;;;;;;18.80;100.00;101415.56;4992606;28;20063;-47
2023/07/13 05:46:51;;;;;;;0.00;0.00;;;;;;;19.13;100.00;101419.06;4992392;28;20049;-46
2023/07/13 05:49:16;;;;;;;0.03;0.00;;;;;;;19.22;100.00;101418.56;4988986;28;20035;-46
2023/07/13 05:51:42;;;;;;;0.00;0.00;;;;;;;19.32;100.00;101412.53;4981944;28;20104;-44
2023/07/13 05:54:07;;;;;;;0.00;0.00;;;;;;;19.26;100.00;101418.91;4984250;28;20034;-48
2023/07/13 05:56:33;;;;;;;0.00;0.00;;;;;;;19.11;100.00;101415.72;4990593;28;20047;-46
2023/07/13 05:58:58;;;;;;;0.00;0.00;;;;;;;19.11;100.00;101421.16;4986634;28;20057;-46
2023/07/13 06:01:24;;;;;;;0.00;0.00;;;;;;;19.20;100.00;101425.28;4972257;28;20034;-46
2023/07/13 06:03:49;;;;;;;0.00;0.00;;;;;;;19.12;100.00;101423.69;4971950;28;20054;-45
2023/07/13 06:06:15;;;;;;;0.00;0.00;;;;;;;19.12;100.00;101428.31;4980061;28;20030;-45
2023/07/13 06:08:40;;;;;;;0.00;0.00;;;;;;;18.99;100.00;101438.28;4990161;28;20037;-45
2023/07/13 06:11:17;;;;;;;0.00;0.00;;;;;;;18.90;100.00;101431.41;4976944;28;20109;-46
2023/07/13 06:13:43;;;;;;;0.00;0.00;;;;;;;18.75;100.00;101444.56;4988895;28;20034;-44
2023/07/13 06:16:09;;;;;;;0.00;0.00;;;;;;;18.64;100.00;101449.66;4991761;28;20105;-43
2023/07/13 06:18:35;;;;;;;0.00;0.00;;;;;;;18.59;100.00;101446.75;4993257;28;20145;-46
2023/07/13 06:21:07;;;;;;;0.00;0.00;;;;;;;18.62;100.00;101445.47;4994115;28;20084;-46
2023/07/13 06:23:32;;;;;;;0.00;0.00;;;;;;;18.75;100.00;101453.56;4974462;28;20019;-47
2023/07/13 06:25:57;;;;;;;0.00;0.00;;;;;;;19.05;100.00;101455.63;4991543;28;20032;-44
2023/07/13 06:28:23;;;;;;;0.00;0.00;;;;;;;19.69;100.00;101450.81;4993765;28;20030;-44
2023/07/13 06:30:48;;;;;;;0.00;0.00;;;;;;;20.61;100.00;101443.28;4994274;28;20030;-45
2023/07/13 06:33:14;;;;;;;0.00;0.00;;;;;;;21.10;100.00;101440.41;4994773;28;20032;-45
2023/07/13 06:35:39;;;;;;;0.00;0.00;;;;;;;21.02;100.00;101429.81;4988275;28;20026;-45
2023/07/13 06:38:05;;;;;;;0.00;0.00;;;;;;;20.69;100.00;101438.56;4993188;28;20030;-48
2023/07/13 06:40:31;;;;;;;0.00;0.00;;;;;;;20.31;100.00;101437.84;4996663;28;20100;-44
2023/07/13 06:42:56;;;;;;;0.00;0.00;;;;;;;19.98;100.00;101445.63;4996780;28;20038;-43
2023/07/13 06:45:23;;;;;;;0.00;0.00;;;;;;;19.87;100.00;101449.97;4995618;28;20053;-44
2023/07/13 06:47:49;;;;;;;0.00;0.00;;;;;;;19.97;100.00;101458.47;4994871;28;20034;-47
2023/07/13 06:50:14;;;;;;;0.00;0.00;;;;;;;19.95;100.00;101455.97;4995850;28;20105;-47
2023/07/13 06:52:40;;;;;;;0.00;0.00;;;;;;;19.87;100.00;101453.53;4987634;28;20381;-47
2023/07/13 06:55:06;;;;;;;0.00;0.00;;;;;;;19.80;100.00;101463.72;4987029;28;20049;-47
2023/07/13 06:57:31;;;;;;;0.00;0.00;;;;;;;19.39;100.00;101473.38;4995742;28;20033;-46
2023/07/13 06:59:57;;;;;;;0.00;0.00;;;;;;;19.13;100.00;101479.06;4995053;28;20568;-43
2023/07/13 07:02:22;;;;;;;0.00;0.00;;;;;;;19.08;100.00;101479.75;4983307;28;20098;-45
2023/07/13 07:04:48;;;;;;;0.00;0.00;;;;;;;19.21;100.00;101473.34;4985789;28;20031;-43
2023/07/13 07:07:13;;;;;;;0.00;0.00;;;;;;;19.22;100.00;101472.25;4984397;28;20038;-46
2023/07/13 07:09:39;;;;;;;0.00;0.00;;;;;;;19.36;100.00;101473.81;4993242;28;20472;-46
2023/07/13 07:12:05;;;;;;;0.00;0.00;;;;;;;19.45;100.00;101472.47;4995154;28;20066;-46
2023/07/13 07:14:31;;;;;;;0.00;0.00;;;;;;;19.59;100.00;101477.78;4990160;28;20543;-49
2023/07/13 07:16:58;;;;;;;0.00;0.00;;;;;;;20.03;100.00;101475.84;5003774;28;20349;-47
2023/07/13 07:19:24;;;;;;;0.00;0.00;;;;;;;20.39;100.00;101466.75;4976282;28;20101;-45
2023/07/13 07:21:49;;;;;;;0.00;0.00;;;;;;;20.29;100.00;101467.28;4985501;28;20081;-45
2023/07/13 07:24:15;;;;;;;0.00;0.00;;;;;;;20.56;100.00;101475.16;4986146;28;20030;-45
2023/07/13 07:26:41;;;;;;;0.00;0.00;;;;;;;20.80;100.00;101481.50;4986463;28;20484;-45
2023/07/13 07:29:06;;;;;;;0.00;0.00;;;;;;;20.76;100.00;101478.41;4998271;28;20045;-48
2023/07/13 07:31:32;;;;;;;0.00;0.00;;;;;;;20.82;100.00;101480.19;4993909;28;20461;-42
2023/07/13 07:33:57;;;;;;;0.00;0.00;;;;;;;20.65;100.00;101481.97;4995158;28;20376;-44
2023/07/13 07:36:22;;;;;;;0.00;0.00;;;;;;;20.34;100.00;101481.09;4994739;28;20038;-47
2023/07/13 07:38:48;;;;;;;0.00;0.00;;;;;;;20.32;100.00;101496.91;4987728;28;20504;-44
2023/07/13 07:41:13;;;;;;;0.00;0.00;;;;;;;19.81;100.00;101498.16;4992482;28;20428;-45
2023/07/13 07:43:39;;;;;;;0.00;0.00;;;;;;;19.74;100.00;101498.22;4994839;28;20096;-46
2023/07/13 07:46:04;;;;;;;0.00;0.00;;;;;;;20.37;100.00;101486.09;4994539;28;20030;-47
2023/07/13 07:48:30;;;;;;;0.00;0.00;;;;;;;21.29;100.00;101492.28;4988770;28;20034;-45
2023/07/13 07:50:56;;;;;;;0.00;0.00;;;;;;;21.68;100.00;101497.06;4996453;28;20050;-46
2023/07/13 07:53:21;;;;;;;0.00;0.00;;;;;;;22.50;100.00;101498.78;4987481;28;20035;-46
2023/07/13 07:55:47;;;;;;;0.00;0.00;;;;;;;22.43;100.00;101506.31;4981505;28;20121;-45
2023/07/13 07:58:13;;;;;;;0.00;0.00;;;;;;;22.47;100.00;101499.25;4976802;28;20469;-46
2023/07/13 08:00:38;;;;;;;0.00;0.00;;;;;;;23.22;100.00;101508.25;4982415;28;20034;-45
2023/07/13 08:03:04;;;;;;;0.00;0.00;;;;;;;23.87;100.00;101501.28;4994921;28;20476;-45
2023/07/13 08:05:29;;;;;;;0.00;0.00;;;;;;;24.15;100.00;101500.28;4993359;28;20141;-44
2023/07/13 08:07:55;;;;;;;0.00;0.00;;;;;;;23.88;100.00;101513.94;4993354;28;20022;-47
2023/07/13 08:10:20;;;;;;;0.00;0.00;;;;;;;23.29;100.00;101511.69;4993129;28;20037;-45
2023/07/13 08:12:46;;;;;;;0.00;0.00;;;;;;;22.75;100.00;101505.81;4993852;28;20034;-46
2023/07/13 08:15:14;;;;;;;0.00;0.00;;;;;;;22.36;100.00;101497.41;4993626;28;20026;-46
2023/07/13 08:17:39;;;;;;;0.00;0.00;;;;;;;22.07;100.00;101505.59;4993692;28;20485;-46
2023/07/13 08:20:05;;;;;;;0.00;0.00;;;;;;;21.57;100.00;101511.63;4993803;28;20109;-44
2023/07/13 08:22:31;;;;;;;0.00;0.00;;;;;;;21.17;100.00;101511.44;4993367;28;20385;-46
2023/07/13 08:24:56;;;;;;;0.00;0.00;;;;;;;20.68;100.00;101516.22;4994958;28;20030;-45
2023/07/13 08:27:22;;;;;;;0.00;0.00;;;;;;;21.24;100.00;101518.47;4995693;28;20026;-45
2023/07/13 08:29:48;;;;;;;0.00;0.00;;;;;;;22.39;100.00;101510.63;4994837;28;20092;-45
2023/07/13 08:32:14;;;;;;;0.00;0.00;;;;;;;22.83;100.00;101497.19;4994895;28;20105;-45
2023/07/13 08:34:40;;;;;;;0.00;0.00;;;;;;;23.19;100.00;101511.53;4993441;28;20035;-45
2023/07/13 08:37:06;;;;;;;0.00;0.00;;;;;;;23.59;100.00;101510.47;4993912;28;20026;-44
2023/07/13 08:39:32;;;;;;;0.00;0.00;;;;;;;23.31;100.00;101505.94;4992200;28;20041;-45
2023/07/13 08:42:02;;;;;;;0.00;0.00;;;;;;;23.48;100.00;101504.00;4993079;28;20105;-44
2023/07/13 08:45:01;;;;;;;0.00;0.00;;;;;;;22.83;100.00;101508.16;4991842;28;20505;-44
2023/07/13 08:47:28;;;;;;;0.00;0.00;;;;;;;23.31;100.00;101514.19;4992078;28;20091;-45
2023/07/13 08:49:56;;;;;;;0.00;0.00;;;;;;;24.59;100.00;101508.47;4991294;28;20031;-44
2023/07/13 08:52:35;;;;;;;0.00;0.00;;;;;;;25.62;100.00;101513.75;4991082;28;20468;-43
2023/07/13 08:55:25;;;;;;;0.00;0.00;;;;;;;25.66;92.85;101513.22;4989135;28;20061;-44
2023/07/13 08:58:18;;;;;;;0.00;0.00;;;;;;;25.86;94.98;101505.09;5067910;28;20394;-48
2023/07/13 09:00:57;;;;;;;0.00;0.00;;;;;;;25.18;95.45;101518.69;5066924;28;20063;-46
2023/07/13 09:03:26;;;;;;;0.00;0.00;;;;;;;24.94;97.07;101510.75;5068235;28;20021;-45
2023/07/13 09:05:58;;;;;;;0.00;0.00;;;;;;;25.49;94.71;101511.47;5067111;28;20024;-45
2023/07/13 09:08:31;;;;;;;0.00;0.00;;;;;;;26.27;91.29;101505.25;5068062;28;20420;-46
2023/07/13 09:11:38;;;;;;;0.00;0.00;;;;;;;26.20;89.62;101512.97;5068388;28;20033;-46
2023/07/13 09:14:28;;;;;;;0.00;0.00;;;;;;;25.74;92.48;101507.19;5067195;28;20039;-46
2023/07/13 09:16:55;;;;;;;0.00;0.00;;;;;;;26.01;91.07;101513.44;5050478;28;20086;-45
2023/07/13 09:19:26;;;;;;;0.00;0.00;;;;;;;25.60;94.39;101509.59;5067987;28;20429;-44
2023/07/13 09:21:52;;;;;;;0.00;0.00;;;;;;;25.49;94.57;101522.50;5067479;28;20036;-44
2023/07/13 09:24:41;;;;;;;0.00;0.00;;;;;;;25.38;94.99;101524.34;5062567;28;20021;-43
2023/07/13 09:27:17;;;;;;;0.00;0.00;;;;;;;25.51;95.13;101525.78;5064861;28;20031;-45
2023/07/13 09:29:48;;;;;;;0.00;0.00;;;;;;;25.16;94.93;101535.47;5049223;28;20067;-46
2023/07/13 09:32:14;;;;;;;0.00;0.00;;;;;;;25.01;94.55;101528.97;5057186;28;20060;-46
2023/07/13 09:34:40;;;;;;;0.00;0.00;;;;;;;25.02;93.81;101536.16;5065703;28;20030;-45
2023/07/13 09:37:05;;;;;;;0.00;0.00;;;;;;;23.66;98.59;101533.13;5068108;28;20044;-46
2023/07/13 09:39:37;;;;;;;0.00;0.00;;;;;;;24.06;98.91;101532.03;5056903;28;20021;-45
2023/07/13 09:42:11;;;;;;;0.00;0.00;;;;;;;24.93;95.68;101536.59;5047137;28;20400;-45
2023/07/13 09:44:55;;;;;;;0.00;0.00;;;;;;;26.08;91.27;101534.41;5049306;28;20033;-44
2023/07/13 09:47:32;;;;;;;0.00;0.00;;;;;;;26.66;86.49;101540.69;5056745;28;20024;-45
2023/07/13 09:50:02;;;;;;;0.00;0.00;;;;;;;26.92;86.07;101544.34;5062913;28;20013;-47
2023/07/13 09:52:40;;;;;;;0.00;0.00;;;;;;;26.51;87.86;101552.50;5057103;28;20502;-45
2023/07/13 09:55:23;;;;;;;0.00;0.00;;;;;;;26.31;88.01;101556.03;5055736;28;20036;-50
2023/07/13 09:57:49;;;;;;;0.00;0.00;;;;;;;26.64;87.31;101553.94;5066604;28;20075;-45
2023/07/13 10:00:24;;;;;;;0.00;0.00;;;;;;;26.41;88.53;101561.59;5066496;28;20491;-46
2023/07/13 10:03:05;;;;;;;0.00;0.00;;;;;;;26.65;87.99;101552.88;5058180;28;20033;-43
2023/07/13 10:05:41;;;;;;;0.00;0.00;;;;;;;26.55;87.88;101577.69;5046732;28;20071;-45
2023/07/13 10:08:21;;;;;;;0.00;0.00;;;;;;;26.16;88.77;101561.50;5048909;28;20088;-45
2023/07/13 10:10:53;;;;;;;0.00;0.00;;;;;;;26.57;86.27;101561.66;5052426;28;20029;-46
2023/07/13 10:13:25;;;;;;;0.00;0.00;;;;;;;26.29;85.21;101572.03;5033618;28;20025;-46
2023/07/13 10:15:50;;;;;;;0.00;0.00;;;;;;;26.23;84.81;101586.91;5033083;28;20033;-47
2023/07/13 10:18:17;;;;;;;0.00;0.00;;;;;;;26.57;86.77;101580.97;5049581;28;20025;-46
2023/07/13 10:20:42;;;;;;;0.00;0.00;;;;;;;25.89;85.60;101587.28;5053016;28;20059;-45
2023/07/13 10:23:15;;;;;;;0.00;0.00;;;;;;;25.72;89.62;101589.34;5048155;28;20111;-46
2023/07/13 10:25:44;;;;;;;0.00;0.00;;;;;;;25.88;88.95;101591.13;5033137;28;20029;-43
2023/07/13 10:28:25;;;;;;;0.00;0.00;;;;;;;26.34;88.07;101594.13;5033111;28;20466;-44
2023/07/13 10:30:52;;;;;;;0.00;0.00;;;;;;;26.67;86.41;101598.44;5032677;28;20567;-46
2023/07/13 10:33:17;;;;;;;;;;;;;;;27.25;84.20;101598.28;5049249;28;20387;-47
2023/07/13 10:35:46;;;;;;;0.00;0.00;;;;;;;27.84;82.86;101605.16;5032649;28;19909;-46
2023/07/13 10:38:14;;;;;;;0.00;0.00;;;;;;;27.91;82.20;101600.19;5045725;28;20510;-49
2023/07/13 10:40:43;;;;;;;0.00;0.00;;;;;;;28.51;79.90;101591.94;5037790;28;20029;-44
2023/07/13 10:43:32;;;;;;;0.00;0.00;;;;;;;28.02;79.34;101598.22;5051503;28;20094;-44
2023/07/13 10:45:59;;;;;;;0.00;0.00;;;;;;;27.49;81.88;101597.69;5051378;28;20029;-47
2023/07/13 10:48:25;;;;;;;0.00;0.00;;;;;;;26.44;85.48;101599.69;5047386;28;20026;-46
2023/07/13 10:50:55;;;;;;;0.00;0.00;;;;;;;26.61;87.53;101607.78;5044505;28;20032;-49
2023/07/13 10:53:37;;;;;;;0.00;0.00;;;;;;;27.50;84.43;101610.44;5049183;28;20033;-48
2023/07/13 10:56:08;;;;;;;0.00;0.00;;;;;;;27.85;83.55;101603.22;5050461;28;20040;-46
2023/07/13 10:58:33;;;;;;;0.00;0.00;;;;;;;28.32;80.72;101607.50;5041156;28;20483;-44
2023/07/13 11:01:10;;;;;;;0.00;0.00;;;;;;;27.48;82.13;101607.94;5039505;28;20124;-44
2023/07/13 11:03:59;;;;;;;0.00;0.00;;;;;;;26.79;84.07;101617.50;5052537;28;20102;-44
2023/07/13 11:06:24;;;;;;;0.00;0.00;;;;;;;26.54;85.04;101606.38;5033932;28;20062;-45
2023/07/13 11:08:55;;;;;;;0.00;0.00;;;;;;;26.98;85.34;101614.22;5033041;28;20484;-45
2023/07/13 11:11:23;;;;;;;0.00;0.00;;;;;;;27.33;83.77;101605.16;5044881;28;20357;-46
2023/07/13 11:13:49;;;;;;;0.00;0.00;;;;;;;27.60;82.88;101615.13;5053774;28;20107;-46
2023/07/13 11:16:17;;;;;;;0.00;0.00;;;;;;;27.31;82.18;101612.94;5053584;28;20160;-47
2023/07/13 11:19:06;;;;;;;0.00;0.00;;;;;;;27.57;79.43;101617.34;5051861;28;20068;-45
2023/07/13 11:21:31;;;;;;;0.00;0.00;;;;;;;27.51;80.27;101623.13;5050922;28;20041;-49